createdAt,value
2019-03-18T00:00:30.591Z,1.10
2019-03-18T00:02:59.085Z,0.97
2019-03-18T00:05:27.574Z,1.20
2019-03-18T00:07:56.153Z,1.50
2019-03-18T00:10:24.555Z,1.10
2019-03-18T00:12:53.095Z,1.10
2019-03-18T00:15:21.596Z,1.50
2019-03-18T00:17:50.123Z,0.90
2019-03-18T00:20:18.615Z,1.20
2019-03-18T00:22:47.396Z,0.90
2019-03-18T00:25:16.302Z,1.20
2019-03-18T00:27:44.717Z,1.37
2019-03-18T00:30:20.575Z,1.50
2019-03-18T00:32:49.104Z,0.90
2019-03-18T00:35:17.630Z,1.23
2019-03-18T00:37:46.060Z,2.27
2019-03-18T00:40:18.428Z,1.00
2019-03-18T00:42:46.827Z,0.97
2019-03-18T00:45:15.835Z,0.93
2019-03-18T00:47:44.544Z,1.00
2019-03-18T00:50:16.858Z,1.33
2019-03-18T00:52:45.317Z,0.80
2019-03-18T00:55:13.788Z,1.00
2019-03-18T00:57:42.222Z,0.80
2019-03-18T01:00:12.814Z,1.00
2019-03-18T01:02:41.217Z,1.00
2019-03-18T01:05:09.817Z,0.60
2019-03-18T01:07:38.284Z,1.50
2019-03-18T01:10:16.137Z,1.30
2019-03-18T01:12:44.539Z,1.03
2019-03-18T01:15:13.000Z,1.00
2019-03-18T01:17:41.583Z,0.90
2019-03-18T01:20:13.988Z,0.83
2019-03-18T01:22:42.444Z,1.07
2019-03-18T01:25:11.185Z,0.70
2019-03-18T01:27:39.715Z,0.90
2019-03-18T01:30:14.739Z,1.10
2019-03-18T01:32:43.199Z,0.80
2019-03-18T01:35:11.673Z,1.17
2019-03-18T01:37:40.132Z,1.23
2019-03-18T01:40:12.809Z,1.23
2019-03-18T01:42:41.353Z,0.77
2019-03-18T01:45:10.697Z,0.80
2019-03-18T01:47:39.193Z,0.90
2019-03-18T01:50:13.145Z,0.80
2019-03-18T01:52:41.630Z,0.90
2019-03-18T01:55:10.015Z,0.53
2019-03-18T01:57:38.481Z,0.50
2019-03-18T02:00:09.715Z,0.50
2019-03-18T02:02:38.170Z,0.50
2019-03-18T02:05:08.291Z,0.30
2019-03-18T02:07:36.830Z,0.40
2019-03-18T02:10:08.568Z,0.50
2019-03-18T02:12:37.224Z,0.50
2019-03-18T02:15:11.572Z,1.60
2019-03-18T02:17:40.001Z,0.50
2019-03-18T02:20:19.647Z,0.70
2019-03-18T02:22:47.753Z,0.40
2019-03-18T02:25:16.220Z,0.50
2019-03-18T02:27:44.793Z,0.90
2019-03-18T02:30:16.550Z,1.00
2019-03-18T02:32:45.486Z,0.90
2019-03-18T02:35:14.078Z,0.50
2019-03-18T02:37:42.587Z,0.60
2019-03-18T02:40:11.689Z,0.80
2019-03-18T02:42:40.282Z,0.67
2019-03-18T02:45:10.774Z,1.70
2019-03-18T02:47:39.270Z,0.77
2019-03-18T02:50:08.807Z,1.17
2019-03-18T02:52:37.266Z,0.60
2019-03-18T02:55:07.169Z,1.40
2019-03-18T02:57:35.682Z,1.00
2019-03-18T03:00:10.097Z,1.03
2019-03-18T03:02:38.564Z,1.20
2019-03-18T03:05:08.521Z,1.23
2019-03-18T03:07:36.916Z,0.70
2019-03-18T03:10:06.847Z,0.83
2019-03-18T03:12:35.350Z,0.83
2019-03-18T03:15:04.993Z,0.60
2019-03-18T03:17:33.402Z,0.50
2019-03-18T03:20:02.068Z,0.50
2019-03-18T03:22:30.514Z,0.90
2019-03-18T03:24:58.951Z,1.07
2019-03-18T03:27:27.424Z,0.97
2019-03-18T03:29:55.833Z,0.83
2019-03-18T03:32:24.242Z,0.70
2019-03-18T03:34:52.709Z,0.90
2019-03-18T03:37:21.212Z,0.70
2019-03-18T03:39:49.931Z,0.63
2019-03-18T03:42:18.400Z,0.83
2019-03-18T03:44:46.901Z,0.63
2019-03-18T03:47:15.282Z,0.70
2019-03-18T03:49:43.672Z,0.50
2019-03-18T03:52:12.201Z,1.10
2019-03-18T03:54:40.635Z,0.80
2019-03-18T03:57:09.189Z,0.80
2019-03-18T03:59:37.748Z,0.80
2019-03-18T04:02:06.147Z,0.67
2019-03-18T04:04:34.563Z,0.93
2019-03-18T04:07:03.064Z,0.53
2019-03-18T04:09:31.470Z,0.77
2019-03-18T04:11:59.931Z,1.03
2019-03-18T04:14:28.346Z,0.90
2019-03-18T04:17:03.802Z,0.53
2019-03-18T04:19:27.035Z,0.83
2019-03-18T04:21:55.568Z,0.70
2019-03-18T04:24:23.896Z,0.67
2019-03-18T04:26:52.394Z,0.80
2019-03-18T04:29:22.165Z,0.80
2019-03-18T04:31:50.685Z,0.90
2019-03-18T04:34:19.132Z,0.40
2019-03-18T04:36:47.598Z,0.67
2019-03-18T04:39:16.082Z,0.70
2019-03-18T04:41:44.559Z,0.93
2019-03-18T04:44:13.035Z,0.53
2019-03-18T04:46:41.492Z,0.50
2019-03-18T04:49:09.991Z,0.50
2019-03-18T04:51:38.472Z,0.50
2019-03-18T04:54:07.004Z,0.43
2019-03-18T04:56:35.597Z,0.50
2019-03-18T04:59:04.067Z,0.50
2019-03-18T05:01:32.519Z,0.60
2019-03-18T05:04:01.071Z,0.63
2019-03-18T05:06:29.592Z,0.40
2019-03-18T05:08:58.112Z,0.50
2019-03-18T05:11:26.584Z,0.60
2019-03-18T05:13:55.112Z,0.40
2019-03-18T05:16:23.822Z,0.30
2019-03-18T05:19:12.793Z,0.33
2019-03-18T05:21:41.213Z,0.50
2019-03-18T05:24:09.674Z,0.37
2019-03-18T05:26:39.870Z,0.70
2019-03-18T05:29:08.365Z,0.90
2019-03-18T05:31:36.820Z,0.60
2019-03-18T05:34:05.215Z,0.43
2019-03-18T05:36:33.716Z,0.60
2019-03-18T05:39:02.192Z,0.80
2019-03-18T05:41:30.620Z,0.40
2019-03-18T05:43:59.083Z,0.50
2019-03-18T05:46:27.621Z,0.40
2019-03-18T05:48:56.207Z,0.50
2019-03-18T05:51:24.905Z,0.50
2019-03-18T05:53:53.328Z,0.40
2019-03-18T05:56:21.748Z,0.70
2019-03-18T05:58:50.221Z,0.50
2019-03-18T06:01:18.748Z,0.50
2019-03-18T06:03:47.189Z,0.40
2019-03-18T06:06:15.757Z,0.40
2019-03-18T06:08:44.876Z,0.60
2019-03-18T06:11:14.674Z,0.40
2019-03-18T06:13:43.261Z,0.50
2019-03-18T06:16:11.720Z,0.40
2019-03-18T06:18:40.255Z,0.70
2019-03-18T06:21:08.749Z,0.50
2019-03-18T06:23:37.213Z,0.40
2019-03-18T06:26:05.739Z,0.50
2019-03-18T06:28:34.248Z,0.60
2019-03-18T06:31:02.784Z,0.40
2019-03-18T06:33:31.270Z,0.50
2019-03-18T06:35:59.759Z,0.50
2019-03-18T06:38:28.158Z,0.50
2019-03-18T06:40:56.560Z,0.60
2019-03-18T06:43:25.082Z,0.40
2019-03-18T06:45:53.612Z,0.33
2019-03-18T06:48:22.091Z,0.60
2019-03-18T06:50:50.584Z,0.50
2019-03-18T06:53:19.112Z,0.53
2019-03-18T06:55:47.585Z,0.67
2019-03-18T06:58:16.100Z,0.50
2019-03-18T07:00:44.524Z,0.50
2019-03-18T07:03:14.940Z,0.40
2019-03-18T07:05:46.000Z,0.60
2019-03-18T07:08:13.196Z,0.70
2019-03-18T07:10:41.689Z,0.80
2019-03-18T07:13:10.248Z,0.60
2019-03-18T07:15:38.714Z,0.60
2019-03-18T07:18:17.460Z,0.50
2019-03-18T07:20:37.355Z,0.70
2019-03-18T07:23:05.894Z,1.17
2019-03-18T07:25:34.368Z,0.50
2019-03-18T07:28:02.842Z,0.50
2019-03-18T07:30:31.435Z,0.40
2019-03-18T07:32:59.964Z,0.57
2019-03-18T07:35:28.518Z,0.70
2019-03-18T07:37:57.083Z,0.50
2019-03-18T07:40:25.543Z,0.60
2019-03-18T07:42:53.948Z,0.60
2019-03-18T07:45:22.514Z,0.47
2019-03-18T07:47:50.898Z,0.40
2019-03-18T07:50:19.415Z,0.47
2019-03-18T07:52:47.903Z,0.57
2019-03-18T07:55:16.323Z,0.40
2019-03-18T07:57:44.863Z,0.43
2019-03-18T08:00:15.354Z,0.47
2019-03-18T08:02:43.815Z,1.20
2019-03-18T08:05:12.392Z,0.60
2019-03-18T08:07:40.928Z,0.60
2019-03-18T08:10:12.590Z,0.60
2019-03-18T08:12:41.027Z,0.70
2019-03-18T08:15:11.539Z,0.40
2019-03-18T08:17:39.949Z,0.47
2019-03-18T08:20:10.935Z,0.53
2019-03-18T08:22:39.495Z,0.60
2019-03-18T08:25:09.099Z,0.60
2019-03-18T08:27:37.493Z,0.53
2019-03-18T08:30:09.243Z,0.50
2019-03-18T08:32:37.887Z,0.37
2019-03-18T08:35:06.563Z,0.50
2019-03-18T08:37:35.076Z,0.90
2019-03-18T08:40:04.889Z,0.50
2019-03-18T08:42:33.358Z,0.60
2019-03-18T08:45:02.406Z,0.90
2019-03-18T08:47:31.343Z,0.47
2019-03-18T08:49:59.808Z,0.60
2019-03-18T08:52:28.308Z,0.50
2019-03-18T08:54:56.701Z,0.47
2019-03-18T08:57:25.190Z,0.60
2019-03-18T08:59:53.585Z,0.50
2019-03-18T09:02:21.978Z,0.40
2019-03-18T09:04:50.468Z,0.90
2019-03-18T09:07:19.004Z,1.80
2019-03-18T09:09:47.458Z,1.70
2019-03-18T09:12:15.927Z,1.50
2019-03-18T09:14:44.319Z,1.40
2019-03-18T09:17:12.901Z,2.13
2019-03-18T09:19:41.432Z,2.53
2019-03-18T09:22:09.830Z,2.00
2019-03-18T09:24:38.360Z,1.60
2019-03-18T09:27:06.822Z,1.23
2019-03-18T09:29:35.210Z,0.87
2019-03-18T09:32:03.719Z,1.57
2019-03-18T09:34:32.337Z,0.90
2019-03-18T09:37:00.809Z,1.20
2019-03-18T09:39:29.277Z,1.10
2019-03-18T09:41:57.764Z,1.40
2019-03-18T09:44:26.221Z,1.63
2019-03-18T09:46:54.755Z,0.50
2019-03-18T09:49:23.219Z,0.57
2019-03-18T09:51:51.693Z,0.80
2019-03-18T09:54:20.174Z,0.67
2019-03-18T09:56:48.637Z,0.60
2019-03-18T09:59:17.196Z,0.60
2019-03-18T10:01:45.615Z,0.60
2019-03-18T10:04:14.222Z,0.70
2019-03-18T10:06:42.777Z,0.50
2019-03-18T10:09:11.481Z,0.50
2019-03-18T10:11:40.020Z,0.63
2019-03-18T10:14:08.580Z,0.80
2019-03-18T10:16:36.976Z,0.60
2019-03-18T10:19:05.527Z,0.90
2019-03-18T10:21:33.986Z,0.57
2019-03-18T10:24:02.399Z,0.30
2019-03-18T10:26:30.957Z,0.60
2019-03-18T10:28:59.432Z,0.40
2019-03-18T10:31:27.936Z,0.47
2019-03-18T10:33:56.473Z,0.47
2019-03-18T10:36:24.941Z,0.30
2019-03-18T10:38:53.533Z,0.77
2019-03-18T10:41:21.927Z,0.30
2019-03-18T10:43:50.361Z,0.73
2019-03-18T10:46:18.823Z,0.70
2019-03-18T10:48:47.223Z,0.60
2019-03-18T10:51:15.786Z,0.60
2019-03-18T10:53:44.679Z,0.60
2019-03-18T10:56:16.148Z,0.93
2019-03-18T10:58:44.696Z,0.57
2019-03-18T11:01:13.071Z,0.40
2019-03-18T11:03:41.666Z,0.50
2019-03-18T11:06:10.073Z,0.63
2019-03-18T11:08:38.626Z,0.40
2019-03-18T11:11:07.167Z,0.57
2019-03-18T11:13:35.644Z,0.30
2019-03-18T11:16:04.171Z,0.60
2019-03-18T11:18:32.752Z,0.60
2019-03-18T11:21:01.275Z,0.53
2019-03-18T11:23:29.782Z,0.77
2019-03-18T11:25:58.171Z,0.57
2019-03-18T11:28:26.741Z,0.50
2019-03-18T11:30:55.207Z,0.50
2019-03-18T11:33:23.696Z,0.60
2019-03-18T11:35:52.078Z,0.80
2019-03-18T11:38:20.602Z,0.47
2019-03-18T11:40:49.191Z,0.53
2019-03-18T11:43:17.731Z,0.57
2019-03-18T11:45:46.196Z,0.47
2019-03-18T11:48:14.751Z,0.53
2019-03-18T11:50:43.223Z,0.80
2019-03-18T11:53:14.568Z,0.40
2019-03-18T11:55:42.836Z,0.40
2019-03-18T11:58:11.304Z,0.93
2019-03-18T12:00:39.694Z,0.50
2019-03-18T12:03:08.143Z,0.50
2019-03-18T12:05:36.599Z,1.83
2019-03-18T12:08:05.036Z,4.87
2019-03-18T12:10:33.539Z,1.80
2019-03-18T12:13:02.065Z,1.00
2019-03-18T12:15:30.478Z,2.30
2019-03-18T12:17:59.007Z,2.27
2019-03-18T12:20:27.426Z,1.60
2019-03-18T12:22:55.946Z,2.27
2019-03-18T12:25:24.427Z,1.10
2019-03-18T12:27:52.875Z,2.87
2019-03-18T12:30:24.982Z,1.53
2019-03-18T12:32:53.426Z,1.20
2019-03-18T12:35:22.075Z,1.27
2019-03-18T12:37:50.527Z,1.00
2019-03-18T12:40:19.004Z,0.93
2019-03-18T12:42:47.402Z,1.00
2019-03-18T12:45:16.849Z,0.90
2019-03-18T12:47:45.404Z,0.63
2019-03-18T12:50:36.288Z,0.50
2019-03-18T12:52:50.834Z,0.87
2019-03-18T12:55:19.256Z,0.50
2019-03-18T12:57:48.981Z,0.60
2019-03-18T13:00:28.864Z,0.53
2019-03-18T13:02:57.352Z,0.50
2019-03-18T13:05:25.831Z,0.40
2019-03-18T13:07:54.267Z,0.40
2019-03-18T13:10:22.812Z,0.40
2019-03-18T13:12:51.273Z,0.57
2019-03-18T13:15:20.521Z,0.50
2019-03-18T13:17:49.049Z,0.50
2019-03-18T13:20:22.289Z,0.70
2019-03-18T13:22:53.744Z,0.50
2019-03-18T13:25:20.924Z,0.50
2019-03-18T13:27:49.463Z,0.40
2019-03-18T13:30:22.023Z,0.60
2019-03-18T13:32:50.615Z,0.30
2019-03-18T13:35:19.089Z,0.50
2019-03-18T13:37:47.520Z,0.53
2019-03-18T13:40:16.790Z,0.50
2019-03-18T13:42:45.277Z,0.50
2019-03-18T13:45:17.734Z,0.60
2019-03-18T13:47:46.195Z,0.40
2019-03-18T13:50:19.418Z,0.43
2019-03-18T13:52:47.966Z,0.40
2019-03-18T13:55:16.496Z,2.03
2019-03-18T13:57:44.974Z,2.23
2019-03-18T14:00:22.782Z,2.40
2019-03-18T14:02:51.248Z,2.90
2019-03-18T14:05:19.758Z,1.73
2019-03-18T14:07:59.734Z,1.73
2019-03-18T14:10:23.399Z,1.50
2019-03-18T14:12:51.913Z,0.93
2019-03-18T14:15:21.517Z,1.07
2019-03-18T14:17:50.016Z,1.33
2019-03-18T14:20:23.596Z,0.97
2019-03-18T14:22:51.930Z,0.80
2019-03-18T14:25:20.372Z,0.80
2019-03-18T14:27:48.765Z,1.87
2019-03-18T14:30:18.197Z,0.90
2019-03-18T14:32:46.807Z,1.43
2019-03-18T14:35:15.291Z,1.10
2019-03-18T14:37:43.744Z,0.90
2019-03-18T14:40:14.741Z,2.60
2019-03-18T14:42:43.144Z,1.60
2019-03-18T14:45:16.732Z,2.60
2019-03-18T14:47:45.281Z,4.07
2019-03-18T14:50:14.914Z,2.93
2019-03-18T14:52:43.311Z,2.30
2019-03-18T14:55:13.602Z,2.20
2019-03-18T14:57:41.991Z,2.93
2019-03-18T15:00:19.305Z,3.13
2019-03-18T15:02:47.846Z,3.20
2019-03-18T15:05:16.379Z,2.30
2019-03-18T15:07:44.879Z,3.10
2019-03-18T15:10:15.394Z,1.47
2019-03-18T15:12:43.866Z,1.63
2019-03-18T15:15:14.542Z,1.73
2019-03-18T15:17:43.007Z,1.37
2019-03-18T15:20:12.711Z,1.20
2019-03-18T15:22:41.204Z,1.60
2019-03-18T15:25:21.623Z,0.70
2019-03-18T15:27:50.168Z,1.10
2019-03-18T15:30:19.999Z,0.90
2019-03-18T15:32:48.398Z,0.80
2019-03-18T15:35:17.780Z,0.70
2019-03-18T15:37:46.246Z,1.70
2019-03-18T15:40:20.707Z,1.27
2019-03-18T15:42:49.229Z,0.80
2019-03-18T15:45:18.833Z,1.13
2019-03-18T15:47:47.453Z,1.07
2019-03-18T15:50:35.516Z,1.03
2019-03-18T15:53:04.526Z,0.90
2019-03-18T15:55:33.011Z,1.10
2019-03-18T15:58:01.631Z,1.27
2019-03-18T16:00:33.382Z,1.00
2019-03-18T16:03:01.860Z,1.00
2019-03-18T16:05:30.481Z,1.47
2019-03-18T16:07:58.881Z,0.70
2019-03-18T16:10:27.474Z,0.93
2019-03-18T16:12:56.192Z,0.70
2019-03-18T16:15:24.667Z,0.93
2019-03-18T16:17:53.260Z,0.90
2019-03-18T16:20:24.181Z,0.70
2019-03-18T16:22:52.772Z,0.90
2019-03-18T16:25:21.199Z,0.60
2019-03-18T16:27:49.892Z,1.00
2019-03-18T16:30:20.734Z,0.80
2019-03-18T16:32:49.278Z,0.90
2019-03-18T16:35:18.109Z,0.90
2019-03-18T16:37:46.575Z,0.90
2019-03-18T16:40:16.640Z,0.80
2019-03-18T16:42:45.211Z,0.60
2019-03-18T16:45:15.271Z,0.70
2019-03-18T16:47:43.998Z,0.93
2019-03-18T16:50:15.213Z,1.10
2019-03-18T16:52:43.690Z,0.83
2019-03-18T16:55:12.226Z,0.60
2019-03-18T16:57:40.938Z,0.70
2019-03-18T17:00:12.432Z,0.70
2019-03-18T17:02:40.920Z,0.70
2019-03-18T17:05:09.390Z,0.50
2019-03-18T17:07:37.791Z,0.70
2019-03-18T17:10:11.575Z,0.80
2019-03-18T17:12:40.348Z,1.00
2019-03-18T17:15:13.732Z,0.80
2019-03-18T17:17:42.186Z,0.90
2019-03-18T17:20:14.596Z,2.03
2019-03-18T17:22:49.531Z,0.90
2019-03-18T17:25:16.181Z,0.80
2019-03-18T17:27:44.629Z,1.27
2019-03-18T17:30:17.514Z,0.87
2019-03-18T17:32:46.340Z,1.10
2019-03-18T17:35:15.143Z,0.80
2019-03-18T17:37:43.713Z,1.30
2019-03-18T17:40:13.920Z,0.70
2019-03-18T17:42:42.556Z,1.77
2019-03-18T17:45:13.096Z,2.23
2019-03-18T17:47:43.234Z,1.40
2019-03-18T17:50:14.489Z,1.07
2019-03-18T17:52:43.051Z,0.90
2019-03-18T17:55:11.740Z,0.67
2019-03-18T17:57:40.270Z,0.90
2019-03-18T18:00:13.609Z,0.87
2019-03-18T18:02:42.135Z,1.70
2019-03-18T18:05:10.589Z,0.80
2019-03-18T18:07:39.261Z,0.90
2019-03-18T18:10:10.129Z,0.90
2019-03-18T18:12:38.603Z,1.10
2019-03-18T18:15:09.520Z,0.90
2019-03-18T18:17:38.057Z,1.00
2019-03-18T18:20:08.933Z,0.93
2019-03-18T18:22:37.315Z,1.20
2019-03-18T18:25:08.626Z,1.33
2019-03-18T18:27:37.127Z,1.30
2019-03-18T18:30:08.807Z,1.50
2019-03-18T18:32:37.374Z,1.37
2019-03-18T18:35:08.609Z,1.27
2019-03-18T18:37:37.126Z,1.80
2019-03-18T18:40:08.220Z,1.23
2019-03-18T18:42:36.708Z,2.37
2019-03-18T18:45:07.066Z,3.00
2019-03-18T18:47:35.542Z,2.40
2019-03-18T18:50:05.299Z,2.73
2019-03-18T18:52:33.767Z,2.43
2019-03-18T18:55:02.310Z,1.57
2019-03-18T18:57:30.886Z,1.57
2019-03-18T18:59:59.299Z,1.90
2019-03-18T19:02:27.728Z,2.07
2019-03-18T19:04:56.236Z,1.40
2019-03-18T19:07:26.685Z,1.50
2019-03-18T19:09:55.112Z,1.53
2019-03-18T19:12:23.587Z,1.90
2019-03-18T19:14:52.084Z,2.07
2019-03-18T19:17:20.585Z,2.70
2019-03-18T19:19:49.120Z,2.37
2019-03-18T19:22:17.793Z,2.57
2019-03-18T19:24:46.268Z,2.20
2019-03-18T19:27:14.768Z,2.43
2019-03-18T19:29:43.281Z,1.60
2019-03-18T19:32:11.716Z,1.60
2019-03-18T19:34:40.176Z,1.43
2019-03-18T19:37:08.676Z,1.47
2019-03-18T19:39:37.204Z,1.50
2019-03-18T19:42:06.887Z,1.50
2019-03-18T19:44:35.525Z,1.60
2019-03-18T19:47:05.820Z,2.13
2019-03-18T19:49:34.241Z,1.77
2019-03-18T19:52:02.866Z,2.10
2019-03-18T19:54:31.459Z,3.07
2019-03-18T19:56:59.856Z,2.70
2019-03-18T19:59:28.286Z,2.40
2019-03-18T20:01:56.743Z,4.27
2019-03-18T20:04:25.211Z,7.43
2019-03-18T20:06:53.719Z,2.83
2019-03-18T20:09:24.151Z,4.87
2019-03-18T20:11:52.443Z,3.00
2019-03-18T20:14:21.021Z,2.17
2019-03-18T20:16:49.514Z,2.40
2019-03-18T20:19:18.051Z,2.93
2019-03-18T20:21:46.575Z,2.13
2019-03-18T20:24:15.033Z,2.10
2019-03-18T20:26:43.530Z,2.33
2019-03-18T20:29:12.069Z,2.90
2019-03-18T20:31:40.549Z,8.13
2019-03-18T20:34:08.974Z,2.90
2019-03-18T20:36:37.507Z,2.10
2019-03-18T20:39:07.223Z,1.73
2019-03-18T20:41:35.698Z,1.87
2019-03-18T20:44:04.263Z,1.60
2019-03-18T20:46:32.983Z,1.60
2019-03-18T20:49:01.519Z,1.67
2019-03-18T20:51:29.934Z,1.73
2019-03-18T20:53:58.590Z,1.60
2019-03-18T20:56:27.137Z,1.80
2019-03-18T20:58:56.183Z,1.83
2019-03-18T21:01:24.668Z,1.90
2019-03-18T21:03:53.247Z,3.27
2019-03-18T21:06:21.666Z,1.67
2019-03-18T21:08:50.067Z,1.73
2019-03-18T21:11:18.557Z,1.50
2019-03-18T21:13:56.792Z,1.97
2019-03-18T21:16:17.256Z,1.83
2019-03-18T21:18:46.986Z,2.17
2019-03-18T21:21:15.490Z,2.87
2019-03-18T21:23:44.031Z,2.40
2019-03-18T21:26:12.626Z,2.57
2019-03-18T21:28:41.709Z,3.10
2019-03-18T21:31:12.365Z,3.10
2019-03-18T21:34:00.312Z,2.60
2019-03-18T21:36:37.898Z,1.93
2019-03-18T21:38:59.325Z,1.70
2019-03-18T21:41:27.828Z,1.50
2019-03-18T21:43:56.452Z,1.40
2019-03-18T21:46:26.511Z,1.60
2019-03-18T21:48:54.988Z,2.00
2019-03-18T21:51:23.515Z,1.90
2019-03-18T21:53:51.994Z,1.63
2019-03-18T21:56:20.645Z,1.30
2019-03-18T21:58:49.121Z,2.80
2019-03-18T22:01:17.601Z,1.93
2019-03-18T22:03:46.204Z,2.57
2019-03-18T22:06:14.810Z,1.50
2019-03-18T22:08:43.193Z,1.50
2019-03-18T22:11:11.736Z,1.73
2019-03-18T22:13:40.211Z,1.57
2019-03-18T22:16:08.811Z,1.13
2019-03-18T22:18:37.281Z,1.50
2019-03-18T22:21:05.860Z,1.50
2019-03-18T22:23:34.367Z,1.13
2019-03-18T22:26:03.976Z,1.20
2019-03-18T22:28:32.611Z,1.17
2019-03-18T22:31:01.121Z,1.43
2019-03-18T22:33:29.732Z,1.10
2019-03-18T22:35:58.225Z,1.50
2019-03-18T22:38:26.705Z,1.40
2019-03-18T22:40:56.797Z,1.00
2019-03-18T22:43:25.303Z,1.23
2019-03-18T22:45:53.774Z,1.83
2019-03-18T22:48:22.273Z,1.10
2019-03-18T22:50:50.830Z,1.20
2019-03-18T22:53:19.214Z,1.27
2019-03-18T22:55:47.647Z,1.20
2019-03-18T22:58:16.210Z,1.40
2019-03-18T23:00:48.361Z,1.00
2019-03-18T23:03:23.063Z,1.37
2019-03-18T23:05:51.849Z,1.30
2019-03-18T23:08:20.301Z,1.17
2019-03-18T23:10:48.867Z,1.10
2019-03-18T23:13:17.318Z,1.10
2019-03-18T23:15:45.795Z,1.20
2019-03-18T23:18:14.352Z,1.83
2019-03-18T23:20:42.819Z,1.47
2019-03-18T23:23:11.308Z,3.77
2019-03-18T23:25:39.763Z,2.57
2019-03-18T23:28:08.232Z,1.47
2019-03-18T23:30:36.726Z,1.40
2019-03-18T23:33:05.205Z,1.70
2019-03-18T23:35:33.719Z,1.20
2019-03-18T23:38:02.144Z,1.70
2019-03-18T23:40:30.550Z,1.27
2019-03-18T23:42:59.054Z,2.23
2019-03-18T23:45:27.511Z,2.03
2019-03-18T23:47:56.096Z,1.33
2019-03-18T23:50:24.540Z,1.93
2019-03-18T23:52:52.934Z,1.37
2019-03-18T23:55:21.427Z,1.90
2019-03-18T23:57:49.950Z,1.30
